sensor_id;sensor_type;location;lat;lon;timestamp;pressure;altitude;pressure_sealevel;temperature;humidity
8705;BME280;4389;41.932;25.904;2023-04-15T00:00:51;99842.59;;;13.86;100.00
8705;BME280;4389;41.932;25.904;2023-04-15T00:03:20;99844.78;;;13.75;100.00
8705;BME280;4389;41.932;25.904;2023-04-15T00:05:47;99839.88;;;13.56;100.00
8705;BME280;4389;41.932;25.904;2023-04-15T00:08:13;99839.34;;;13.61;100.00
8705;BME280;4389;41.932;25.904;2023-04-15T00:10:40;99833.81;;;13.78;100.00
8705;BME280;4389;41.932;25.904;2023-04-15T00:13:08;99825.94;;;13.84;100.00
8705;BME280;4389;41.932;25.904;2023-04-15T00:15:36;99833.13;;;13.84;100.00
8705;BME280;4389;41.932;25.904;2023-04-15T00:18:03;99822.19;;;13.71;100.00
8705;BME280;4389;41.932;25.904;2023-04-15T00:20:31;99827.94;;;13.90;100.00
8705;BME280;4389;41.932;25.904;2023-04-15T00:22:58;99832.41;;;13.52;100.00
8705;BME280;4389;41.932;25.904;2023-04-15T00:25:25;99842.28;;;13.19;100.00
8705;BME280;4389;41.932;25.904;2023-04-15T00:27:52;99841.28;;;13.12;100.00
8705;BME280;4389;41.932;25.904;2023-04-15T00:30:19;99839.59;;;13.27;100.00
8705;BME280;4389;41.932;25.904;2023-04-15T00:32:46;99829.63;;;13.21;100.00
8705;BME280;4389;41.932;25.904;2023-04-15T00:35:13;99826.91;;;13.45;100.00
8705;BME280;4389;41.932;25.904;2023-04-15T00:37:42;99850.88;;;13.29;100.00
8705;BME280;4389;41.932;25.904;2023-04-15T00:40:11;99857.22;;;13.12;100.00
8705;BME280;4389;41.932;25.904;2023-04-15T00:42:38;99844.09;;;13.11;100.00
8705;BME280;4389;41.932;25.904;2023-04-15T00:45:06;99838.28;;;13.07;100.00
8705;BME280;4389;41.932;25.904;2023-04-15T00:47:34;99831.78;;;13.26;100.00
8705;BME280;4389;41.932;25.904;2023-04-15T00:50:01;99855.84;;;13.24;100.00
8705;BME280;4389;41.932;25.904;2023-04-15T00:52:29;99849.53;;;13.49;100.00
8705;BME280;4389;41.932;25.904;2023-04-15T00:54:57;99833.88;;;13.46;100.00
8705;BME280;4389;41.932;25.904;2023-04-15T00:57:25;99839.38;;;13.53;100.00
8705;BME280;4389;41.932;25.904;2023-04-15T00:59:52;99849.16;;;13.52;100.00
8705;BME280;4389;41.932;25.904;2023-04-15T01:02:19;99832.22;;;13.61;100.00
8705;BME280;4389;41.932;25.904;2023-04-15T01:04:47;99830.53;;;13.68;100.00
8705;BME280;4389;41.932;25.904;2023-04-15T01:07:14;99838.22;;;13.55;100.00
8705;BME280;4389;41.932;25.904;2023-04-15T01:09:40;99843.16;;;13.66;100.00
8705;BME280;4389;41.932;25.904;2023-04-15T01:12:11;99858.09;;;13.75;100.00
8705;BME280;4389;41.932;25.904;2023-04-15T01:14:38;99861.06;;;13.72;100.00
8705;BME280;4389;41.932;25.904;2023-04-15T01:17:05;99850.13;;;13.75;100.00
8705;BME280;4389;41.932;25.904;2023-04-15T01:19:32;99839.78;;;13.80;100.00
8705;BME280;4389;41.932;25.904;2023-04-15T01:21:59;99829.81;;;13.82;100.00
8705;BME280;4389;41.932;25.904;2023-04-15T01:24:26;99816.53;;;13.74;100.00
8705;BME280;4389;41.932;25.904;2023-04-15T01:26:55;99829.66;;;13.75;100.00
8705;BME280;4389;41.932;25.904;2023-04-15T01:29:21;99841.13;;;13.76;100.00
8705;BME280;4389;41.932;25.904;2023-04-15T01:31:49;99843.50;;;13.63;100.00
8705;BME280;4389;41.932;25.904;2023-04-15T01:34:17;99842.19;;;13.51;100.00
8705;BME280;4389;41.932;25.904;2023-04-15T01:36:44;99847.50;;;13.51;100.00
8705;BME280;4389;41.932;25.904;2023-04-15T01:39:12;99839.81;;;13.72;100.00
8705;BME280;4389;41.932;25.904;2023-04-15T01:41:38;99830.00;;;13.73;100.00
8705;BME280;4389;41.932;25.904;2023-04-15T01:44:08;99823.81;;;13.80;100.00
8705;BME280;4389;41.932;25.904;2023-04-15T01:46:36;99830.63;;;13.82;100.00
8705;BME280;4389;41.932;25.904;2023-04-15T01:49:03;99837.41;;;13.93;100.00
8705;BME280;4389;41.932;25.904;2023-04-15T01:51:30;99847.34;;;13.99;100.00
8705;BME280;4389;41.932;25.904;2023-04-15T01:53:57;99846.38;;;13.92;100.00
8705;BME280;4389;41.932;25.904;2023-04-15T01:56:24;99839.41;;;13.91;100.00
8705;BME280;4389;41.932;25.904;2023-04-15T01:58:51;99832.50;;;13.66;100.00
8705;BME280;4389;41.932;25.904;2023-04-15T02:01:19;99833.72;;;13.56;100.00
8705;BME280;4389;41.932;25.904;2023-04-15T02:03:46;99831.53;;;13.59;100.00
8705;BME280;4389;41.932;25.904;2023-04-15T02:06:13;99843.44;;;13.79;100.00
8705;BME280;4389;41.932;25.904;2023-04-15T02:08:41;99838.75;;;13.89;100.00
8705;BME280;4389;41.932;25.904;2023-04-15T02:11:07;99853.34;;;13.93;100.00
8705;BME280;4389;41.932;25.904;2023-04-15T02:13:34;99864.06;;;13.77;100.00
8705;BME280;4389;41.932;25.904;2023-04-15T02:16:02;99861.50;;;13.91;100.00
8705;BME280;4389;41.932;25.904;2023-04-15T02:18:30;99863.50;;;13.89;100.00
8705;BME280;4389;41.932;25.904;2023-04-15T02:20:57;99855.66;;;14.04;100.00
8705;BME280;4389;41.932;25.904;2023-04-15T02:23:24;99840.97;;;14.08;100.00
8705;BME280;4389;41.932;25.904;2023-04-15T02:25:51;99854.00;;;14.03;100.00
8705;BME280;4389;41.932;25.904;2023-04-15T02:28:17;99857.72;;;13.86;100.00
8705;BME280;4389;41.932;25.904;2023-04-15T02:30:46;99852.06;;;13.81;100.00
8705;BME280;4389;41.932;25.904;2023-04-15T02:33:13;99851.06;;;13.90;100.00
8705;BME280;4389;41.932;25.904;2023-04-15T02:35:42;99867.19;;;13.88;100.00
8705;BME280;4389;41.932;25.904;2023-04-15T02:38:10;99846.38;;;13.92;100.00
8705;BME280;4389;41.932;25.904;2023-04-15T02:40:37;99835.53;;;14.01;100.00
8705;BME280;4389;41.932;25.904;2023-04-15T02:43:03;99839.69;;;14.04;100.00
8705;BME280;4389;41.932;25.904;2023-04-15T02:45:31;99843.00;;;14.06;100.00
8705;BME280;4389;41.932;25.904;2023-04-15T02:47:58;99847.25;;;14.15;100.00
8705;BME280;4389;41.932;25.904;2023-04-15T02:50:28;99855.59;;;14.20;100.00
8705;BME280;4389;41.932;25.904;2023-04-15T02:52:57;99865.88;;;14.15;100.00
8705;BME280;4389;41.932;25.904;2023-04-15T02:55:25;99872.38;;;14.20;100.00
8705;BME280;4389;41.932;25.904;2023-04-15T02:57:52;99876.72;;;14.21;100.00
8705;BME280;4389;41.932;25.904;2023-04-15T03:00:19;99875.84;;;14.29;100.00
8705;BME280;4389;41.932;25.904;2023-04-15T03:02:46;99883.84;;;14.21;100.00
8705;BME280;4389;41.932;25.904;2023-04-15T03:05:16;99892.81;;;14.28;100.00
8705;BME280;4389;41.932;25.904;2023-04-15T03:07:43;99898.16;;;14.20;100.00
8705;BME280;4389;41.932;25.904;2023-04-15T03:10:11;99898.28;;;14.26;100.00
8705;BME280;4389;41.932;25.904;2023-04-15T03:12:38;99896.63;;;14.25;100.00
8705;BME280;4389;41.932;25.904;2023-04-15T03:15:06;99886.84;;;14.10;100.00
8705;BME280;4389;41.932;25.904;2023-04-15T03:17:33;99884.66;;;14.29;100.00
8705;BME280;4389;41.932;25.904;2023-04-15T03:20:00;99868.50;;;14.31;100.00
8705;BME280;4389;41.932;25.904;2023-04-15T03:22:28;99870.19;;;14.32;100.00
8705;BME280;4389;41.932;25.904;2023-04-15T03:24:54;99856.06;;;14.23;100.00
8705;BME280;4389;41.932;25.904;2023-04-15T03:27:23;99854.59;;;14.21;100.00
8705;BME280;4389;41.932;25.904;2023-04-15T03:29:50;99853.75;;;14.12;100.00
8705;BME280;4389;41.932;25.904;2023-04-15T03:32:17;99853.00;;;14.04;100.00
8705;BME280;4389;41.932;25.904;2023-04-15T03:34:43;99876.09;;;14.03;100.00
8705;BME280;4389;41.932;25.904;2023-04-15T03:37:10;99882.91;;;14.06;100.00
8705;BME280;4389;41.932;25.904;2023-04-15T03:39:37;99876.78;;;13.97;100.00
8705;BME280;4389;41.932;25.904;2023-04-15T03:42:04;99870.28;;;14.00;100.00
8705;BME280;4389;41.932;25.904;2023-04-15T03:44:32;99866.81;;;13.91;100.00
8705;BME280;4389;41.932;25.904;2023-04-15T03:46:59;99857.03;;;13.92;100.00
8705;BME280;4389;41.932;25.904;2023-04-15T03:49:26;99872.97;;;13.92;100.00
8705;BME280;4389;41.932;25.904;2023-04-15T03:51:53;99875.47;;;13.93;100.00
8705;BME280;4389;41.932;25.904;2023-04-15T03:54:20;99896.56;;;14.03;100.00
8705;BME280;4389;41.932;25.904;2023-04-15T03:56:47;99911.06;;;13.92;100.00
8705;BME280;4389;41.932;25.904;2023-04-15T03:59:14;99910.91;;;13.86;100.00
8705;BME280;4389;41.932;25.904;2023-04-15T04:01:42;99905.25;;;13.81;100.00
8705;BME280;4389;41.932;25.904;2023-04-15T04:04:09;99903.13;;;13.68;100.00
8705;BME280;4389;41.932;25.904;2023-04-15T04:06:36;99899.81;;;13.67;100.00
8705;BME280;4389;41.932;25.904;2023-04-15T04:09:02;99918.94;;;13.62;100.00
8705;BME280;4389;41.932;25.904;2023-04-15T04:11:29;99924.94;;;13.56;100.00
8705;BME280;4389;41.932;25.904;2023-04-15T04:13:56;99938.88;;;13.58;100.00
8705;BME280;4389;41.932;25.904;2023-04-15T04:16:23;99935.03;;;13.68;100.00
8705;BME280;4389;41.932;25.904;2023-04-15T04:18:51;99934.22;;;13.68;100.00
8705;BME280;4389;41.932;25.904;2023-04-15T04:21:18;99928.91;;;13.68;100.00
8705;BME280;4389;41.932;25.904;2023-04-15T04:23:45;99922.22;;;13.80;100.00
8705;BME280;4389;41.932;25.904;2023-04-15T04:26:12;99923.06;;;13.80;100.00
8705;BME280;4389;41.932;25.904;2023-04-15T04:28:39;99934.84;;;13.78;100.00
8705;BME280;4389;41.932;25.904;2023-04-15T04:31:06;99939.69;;;13.74;100.00
8705;BME280;4389;41.932;25.904;2023-04-15T04:33:33;99954.50;;;13.61;100.00
8705;BME280;4389;41.932;25.904;2023-04-15T04:36:01;99967.13;;;13.75;100.00
8705;BME280;4389;41.932;25.904;2023-04-15T04:38:28;99959.44;;;13.72;100.00
8705;BME280;4389;41.932;25.904;2023-04-15T04:40:55;99961.09;;;13.81;100.00
8705;BME280;4389;41.932;25.904;2023-04-15T04:43:22;99954.63;;;13.83;100.00
8705;BME280;4389;41.932;25.904;2023-04-15T04:45:49;99972.06;;;13.86;100.00
8705;BME280;4389;41.932;25.904;2023-04-15T04:48:16;99969.09;;;13.89;100.00
8705;BME280;4389;41.932;25.904;2023-04-15T04:50:43;99973.69;;;13.95;100.00
8705;BME280;4389;41.932;25.904;2023-04-15T04:53:12;99954.91;;;13.96;100.00
8705;BME280;4389;41.932;25.904;2023-04-15T04:55:40;99957.09;;;13.85;100.00
8705;BME280;4389;41.932;25.904;2023-04-15T04:58:07;99956.13;;;13.78;100.00
8705;BME280;4389;41.932;25.904;2023-04-15T05:00:34;99954.47;;;13.77;100.00
8705;BME280;4389;41.932;25.904;2023-04-15T05:03:02;99942.84;;;13.70;100.00
8705;BME280;4389;41.932;25.904;2023-04-15T05:05:29;99955.47;;;13.60;100.00
8705;BME280;4389;41.932;25.904;2023-04-15T05:07:56;99973.09;;;13.53;100.00
8705;BME280;4389;41.932;25.904;2023-04-15T05:10:25;99961.78;;;13.59;100.00
8705;BME280;4389;41.932;25.904;2023-04-15T05:12:51;99954.50;;;13.61;100.00
8705;BME280;4389;41.932;25.904;2023-04-15T05:15:18;99943.84;;;13.53;100.00
8705;BME280;4389;41.932;25.904;2023-04-15T05:17:45;99946.19;;;13.48;100.00
8705;BME280;4389;41.932;25.904;2023-04-15T05:20:12;99949.66;;;13.49;100.00
8705;BME280;4389;41.932;25.904;2023-04-15T05:22:40;99952.16;;;13.50;100.00
8705;BME280;4389;41.932;25.904;2023-04-15T05:25:07;99955.31;;;13.62;100.00
8705;BME280;4389;41.932;25.904;2023-04-15T05:27:35;99951.16;;;13.59;100.00
8705;BME280;4389;41.932;25.904;2023-04-15T05:30:02;99962.78;;;13.66;100.00
8705;BME280;4389;41.932;25.904;2023-04-15T05:32:29;99965.63;;;13.65;100.00
8705;BME280;4389;41.932;25.904;2023-04-15T05:34:56;99960.81;;;13.68;100.00
8705;BME280;4389;41.932;25.904;2023-04-15T05:37:23;99968.94;;;13.67;100.00
8705;BME280;4389;41.932;25.904;2023-04-15T05:39:50;99974.78;;;13.62;100.00
8705;BME280;4389;41.932;25.904;2023-04-15T05:42:17;99985.72;;;13.75;100.00
8705;BME280;4389;41.932;25.904;2023-04-15T05:44:45;99992.66;;;13.92;100.00
8705;BME280;4389;41.932;25.904;2023-04-15T05:47:12;99997.66;;;13.79;100.00
8705;BME280;4389;41.932;25.904;2023-04-15T05:49:39;99995.00;;;13.79;100.00
8705;BME280;4389;41.932;25.904;2023-04-15T05:52:06;100004.00;;;13.78;100.00
8705;BME280;4389;41.932;25.904;2023-04-15T05:54:33;100008.97;;;13.81;100.00
8705;BME280;4389;41.932;25.904;2023-04-15T05:57:00;100018.25;;;13.93;100.00
8705;BME280;4389;41.932;25.904;2023-04-15T05:59:27;100021.56;;;14.11;100.00
8705;BME280;4389;41.932;25.904;2023-04-15T06:01:55;100017.25;;;14.18;100.00
8705;BME280;4389;41.932;25.904;2023-04-15T06:04:22;100035.38;;;14.22;100.00
8705;BME280;4389;41.932;25.904;2023-04-15T06:06:49;100038.81;;;14.31;100.00
8705;BME280;4389;41.932;25.904;2023-04-15T06:09:16;100034.84;;;14.35;100.00
8705;BME280;4389;41.932;25.904;2023-04-15T06:11:42;100041.81;;;14.36;100.00
8705;BME280;4389;41.932;25.904;2023-04-15T06:14:09;100037.53;;;14.27;100.00
8705;BME280;4389;41.932;25.904;2023-04-15T06:16:36;100050.44;;;14.38;100.00
8705;BME280;4389;41.932;25.904;2023-04-15T06:19:04;100052.28;;;14.45;100.00
8705;BME280;4389;41.932;25.904;2023-04-15T06:21:31;100049.25;;;14.56;100.00
8705;BME280;4389;41.932;25.904;2023-04-15T06:23:58;100051.66;;;14.35;100.00
8705;BME280;4389;41.932;25.904;2023-04-15T06:26:26;100042.59;;;14.52;100.00
8705;BME280;4389;41.932;25.904;2023-04-15T06:28:53;100048.53;;;14.62;100.00
8705;BME280;4389;41.932;25.904;2023-04-15T06:31:20;100042.44;;;14.54;100.00
8705;BME280;4389;41.932;25.904;2023-04-15T06:33:47;100047.06;;;14.68;100.00
8705;BME280;4389;41.932;25.904;2023-04-15T06:36:15;100062.81;;;14.77;100.00
8705;BME280;4389;41.932;25.904;2023-04-15T06:38:42;100071.47;;;14.79;100.00
8705;BME280;4389;41.932;25.904;2023-04-15T06:41:10;100086.59;;;14.79;100.00
8705;BME280;4389;41.932;25.904;2023-04-15T06:43:37;100091.66;;;15.04;100.00
8705;BME280;4389;41.932;25.904;2023-04-15T06:46:04;100086.28;;;15.20;100.00
8705;BME280;4389;41.932;25.904;2023-04-15T06:48:30;100091.41;;;15.22;100.00
8705;BME280;4389;41.932;25.904;2023-04-15T06:50:57;100095.72;;;15.31;100.00
8705;BME280;4389;41.932;25.904;2023-04-15T06:53:26;100104.66;;;15.38;100.00
8705;BME280;4389;41.932;25.904;2023-04-15T06:55:53;100108.84;;;15.63;100.00
8705;BME280;4389;41.932;25.904;2023-04-15T06:58:20;100107.53;;;15.59;99.52
8705;BME280;4389;41.932;25.904;2023-04-15T07:00:47;100115.84;;;15.64;99.57
8705;BME280;4389;41.932;25.904;2023-04-15T07:03:14;100110.50;;;15.64;99.36
8705;BME280;4389;41.932;25.904;2023-04-15T07:05:41;100114.28;;;15.69;98.87
8705;BME280;4389;41.932;25.904;2023-04-15T07:08:08;100116.53;;;15.58;98.16
8705;BME280;4389;41.932;25.904;2023-04-15T07:10:36;100111.56;;;15.55;98.38
8705;BME280;4389;41.932;25.904;2023-04-15T07:13:03;100113.94;;;15.50;98.72
8705;BME280;4389;41.932;25.904;2023-04-15T07:15:31;100111.69;;;15.61;99.21
8705;BME280;4389;41.932;25.904;2023-04-15T07:17:58;100104.84;;;15.67;99.23
8705;BME280;4389;41.932;25.904;2023-04-15T07:20:25;100096.06;;;15.81;98.74
8705;BME280;4389;41.932;25.904;2023-04-15T07:22:52;100096.41;;;15.78;97.14
8705;BME280;4389;41.932;25.904;2023-04-15T07:25:19;100089.53;;;15.61;96.97
8705;BME280;4389;41.932;25.904;2023-04-15T07:27:48;100086.56;;;15.56;97.51
8705;BME280;4389;41.932;25.904;2023-04-15T07:30:15;100080.84;;;15.67;99.22
8705;BME280;4389;41.932;25.904;2023-04-15T07:32:41;100093.88;;;15.84;99.68
8705;BME280;4389;41.932;25.904;2023-04-15T07:35:08;100099.13;;;15.92;100.00
8705;BME280;4389;41.932;25.904;2023-04-15T07:37:36;100101.25;;;15.97;97.22
8705;BME280;4389;41.932;25.904;2023-04-15T07:40:03;100103.38;;;16.01;95.19
8705;BME280;4389;41.932;25.904;2023-04-15T07:42:31;100100.41;;;16.19;96.96
8705;BME280;4389;41.932;25.904;2023-04-15T07:45:00;100109.97;;;16.28;95.43
8705;BME280;4389;41.932;25.904;2023-04-15T07:47:26;100104.72;;;16.20;95.02
8705;BME280;4389;41.932;25.904;2023-04-15T07:49:53;100100.41;;;16.19;95.89
8705;BME280;4389;41.932;25.904;2023-04-15T07:52:20;100103.78;;;16.13;94.75
8705;BME280;4389;41.932;25.904;2023-04-15T07:54:47;100101.97;;;16.13;95.63
8705;BME280;4389;41.932;25.904;2023-04-15T07:57:14;100111.41;;;16.38;96.18
8705;BME280;4389;41.932;25.904;2023-04-15T07:59:41;100108.88;;;16.37;94.15
8705;BME280;4389;41.932;25.904;2023-04-15T08:02:10;100105.72;;;16.41;92.97
8705;BME280;4389;41.932;25.904;2023-04-15T08:04:37;100112.72;;;16.42;92.53
8705;BME280;4389;41.932;25.904;2023-04-15T08:07:03;100119.72;;;16.43;92.41
8705;BME280;4389;41.932;25.904;2023-04-15T08:09:30;100124.44;;;16.33;91.03
8705;BME280;4389;41.932;25.904;2023-04-15T08:11:57;100117.34;;;16.26;91.68
8705;BME280;4389;41.932;25.904;2023-04-15T08:14:24;100114.72;;;16.40;91.83
8705;BME280;4389;41.932;25.904;2023-04-15T08:16:51;100118.25;;;16.41;90.35
8705;BME280;4389;41.932;25.904;2023-04-15T08:19:19;100118.63;;;16.52;90.79
8705;BME280;4389;41.932;25.904;2023-04-15T08:21:46;100118.56;;;16.75;87.38
8705;BME280;4389;41.932;25.904;2023-04-15T08:24:13;100124.00;;;16.96;88.78
8705;BME280;4389;41.932;25.904;2023-04-15T08:26:40;100114.38;;;17.01;85.95
8705;BME280;4389;41.932;25.904;2023-04-15T08:29:07;100121.56;;;17.01;86.79
8705;BME280;4389;41.932;25.904;2023-04-15T08:31:34;100110.69;;;17.02;87.46
8705;BME280;4389;41.932;25.904;2023-04-15T08:34:01;100112.81;;;17.07;86.87
8705;BME280;4389;41.932;25.904;2023-04-15T08:36:29;100109.13;;;17.08;86.54
8705;BME280;4389;41.932;25.904;2023-04-15T08:38:57;100107.91;;;17.25;85.32
8705;BME280;4389;41.932;25.904;2023-04-15T08:41:25;100107.06;;;17.39;84.45
8705;BME280;4389;41.932;25.904;2023-04-15T08:43:55;100109.91;;;17.52;83.34
8705;BME280;4389;41.932;25.904;2023-04-15T08:46:23;100108.63;;;17.69;83.35
8705;BME280;4389;41.932;25.904;2023-04-15T08:48:51;100112.69;;;17.65;82.70
8705;BME280;4389;41.932;25.904;2023-04-15T08:51:21;100100.59;;;17.48;83.76
8705;BME280;4389;41.932;25.904;2023-04-15T08:53:51;100109.34;;;17.56;83.69
8705;BME280;4389;41.932;25.904;2023-04-15T08:56:20;100118.94;;;17.72;81.44
8705;BME280;4389;41.932;25.904;2023-04-15T08:58:50;100113.28;;;17.81;80.29
8705;BME280;4389;41.932;25.904;2023-04-15T09:01:17;100111.59;;;17.95;82.34
8705;BME280;4389;41.932;25.904;2023-04-15T09:03:47;100103.16;;;17.98;82.77
8705;BME280;4389;41.932;25.904;2023-04-15T09:06:15;100099.59;;;18.18;83.52
8705;BME280;4389;41.932;25.904;2023-04-15T09:08:42;100102.88;;;18.35;82.52
8705;BME280;4389;41.932;25.904;2023-04-15T09:11:11;100111.47;;;18.58;82.15
8705;BME280;4389;41.932;25.904;2023-04-15T09:13:38;100106.88;;;18.45;80.34
8705;BME280;4389;41.932;25.904;2023-04-15T09:16:05;100097.94;;;18.38;81.47
8705;BME280;4389;41.932;25.904;2023-04-15T09:18:34;100087.88;;;18.40;82.01
8705;BME280;4389;41.932;25.904;2023-04-15T09:21:05;100088.78;;;18.54;81.43
8705;BME280;4389;41.932;25.904;2023-04-15T09:23:33;100090.78;;;18.45;80.92
8705;BME280;4389;41.932;25.904;2023-04-15T09:26:00;100081.84;;;18.32;81.53
8705;BME280;4389;41.932;25.904;2023-04-15T09:28:29;100073.22;;;18.36;83.20
8705;BME280;4389;41.932;25.904;2023-04-15T09:30:56;100079.72;;;18.55;82.66
8705;BME280;4389;41.932;25.904;2023-04-15T09:33:24;100077.75;;;18.70;82.42
8705;BME280;4389;41.932;25.904;2023-04-15T09:35:59;100079.03;;;18.80;82.15
8705;BME280;4389;41.932;25.904;2023-04-15T09:38:27;100071.50;;;18.96;82.53
8705;BME280;4389;41.932;25.904;2023-04-15T09:40:54;100072.22;;;19.18;82.27
8705;BME280;4389;41.932;25.904;2023-04-15T09:43:21;100078.03;;;19.21;80.10
8705;BME280;4389;41.932;25.904;2023-04-15T09:45:52;100080.97;;;19.33;77.98
8705;BME280;4389;41.932;25.904;2023-04-15T09:48:20;100067.34;;;19.34;76.87
8705;BME280;4389;41.932;25.904;2023-04-15T09:50:48;100068.44;;;19.59;78.01
8705;BME280;4389;41.932;25.904;2023-04-15T09:53:16;100069.91;;;19.81;76.15
8705;BME280;4389;41.932;25.904;2023-04-15T09:55:45;100057.13;;;19.96;74.34
8705;BME280;4389;41.932;25.904;2023-04-15T09:58:19;100062.91;;;19.93;70.87
8705;BME280;4389;41.932;25.904;2023-04-15T10:00:46;100054.66;;;20.01;75.24
8705;BME280;4389;41.932;25.904;2023-04-15T10:03:18;100048.84;;;20.04;74.83
8705;BME280;4389;41.932;25.904;2023-04-15T10:05:46;100045.13;;;19.92;75.57
8705;BME280;4389;41.932;25.904;2023-04-15T10:08:15;100035.63;;;19.83;74.08
8705;BME280;4389;41.932;25.904;2023-04-15T10:10:44;100038.13;;;19.78;74.63
8705;BME280;4389;41.932;25.904;2023-04-15T10:13:12;100025.69;;;19.90;76.51
8705;BME280;4389;41.932;25.904;2023-04-15T10:15:42;100029.81;;;19.99;73.28
8705;BME280;4389;41.932;25.904;2023-04-15T10:18:10;100020.75;;;20.13;72.20
8705;BME280;4389;41.932;25.904;2023-04-15T10:20:39;100031.25;;;20.47;71.10
8705;BME280;4389;41.932;25.904;2023-04-15T10:23:07;100024.81;;;20.61;68.81
8705;BME280;4389;41.932;25.904;2023-04-15T10:25:35;100023.34;;;20.65;68.35
8705;BME280;4389;41.932;25.904;2023-04-15T10:28:02;100015.59;;;20.95;68.28
8705;BME280;4389;41.932;25.904;2023-04-15T10:30:31;100022.69;;;21.27;66.89
8705;BME280;4389;41.932;25.904;2023-04-15T10:32:59;100013.69;;;21.46;63.04
8705;BME280;4389;41.932;25.904;2023-04-15T10:35:26;100008.97;;;21.35;65.87
8705;BME280;4389;41.932;25.904;2023-04-15T10:37:56;100000.97;;;21.28;64.93
8705;BME280;4389;41.932;25.904;2023-04-15T10:40:26;100005.16;;;21.18;64.21
8705;BME280;4389;41.932;25.904;2023-04-15T10:42:54;100004.31;;;21.17;64.38
8705;BME280;4389;41.932;25.904;2023-04-15T10:45:21;100007.19;;;21.22;64.00
8705;BME280;4389;41.932;25.904;2023-04-15T10:47:51;100008.00;;;21.23;65.40
8705;BME280;4389;41.932;25.904;2023-04-15T10:50:19;99994.78;;;21.21;67.29
8705;BME280;4389;41.932;25.904;2023-04-15T10:52:49;99999.78;;;21.11;68.06
8705;BME280;4389;41.932;25.904;2023-04-15T10:55:20;99997.34;;;21.03;68.39
8705;BME280;4389;41.932;25.904;2023-04-15T10:57:51;99989.97;;;20.86;68.90
8705;BME280;4389;41.932;25.904;2023-04-15T11:00:20;99994.97;;;20.69;69.12
8705;BME280;4389;41.932;25.904;2023-04-15T11:02:53;99989.59;;;20.69;69.84
8705;BME280;4389;41.932;25.904;2023-04-15T11:05:21;99988.41;;;20.59;70.44
8705;BME280;4389;41.932;25.904;2023-04-15T11:07:53;99994.19;;;20.69;68.79
8705;BME280;4389;41.932;25.904;2023-04-15T11:10:52;99985.72;;;21.09;65.92
8705;BME280;4389;41.932;25.904;2023-04-15T11:13:26;99986.53;;;21.16;64.75
8705;BME280;4389;41.932;25.904;2023-04-15T11:15:58;99980.00;;;20.99;65.91
8705;BME280;4389;41.932;25.904;2023-04-15T11:18:28;99979.50;;;21.09;65.40
8705;BME280;4389;41.932;25.904;2023-04-15T11:20:58;99973.47;;;21.20;63.62
8705;BME280;4389;41.932;25.904;2023-04-15T11:23:37;99968.44;;;21.54;63.04
8705;BME280;4389;41.932;25.904;2023-04-15T11:26:08;99958.38;;;21.74;60.87
8705;BME280;4389;41.932;25.904;2023-04-15T11:28:38;99969.44;;;21.66;60.32
8705;BME280;4389;41.932;25.904;2023-04-15T11:31:07;99957.34;;;21.44;61.57
8705;BME280;4389;41.932;25.904;2023-04-15T11:33:35;99956.63;;;21.55;62.02
8705;BME280;4389;41.932;25.904;2023-04-15T11:36:02;99956.72;;;21.98;60.34
8705;BME280;4389;41.932;25.904;2023-04-15T11:38:29;99939.41;;;22.05;56.83
8705;BME280;4389;41.932;25.904;2023-04-15T11:40:57;99947.59;;;21.74;57.12
8705;BME280;4389;41.932;25.904;2023-04-15T11:43:25;99947.16;;;21.77;55.73
8705;BME280;4389;41.932;25.904;2023-04-15T11:45:53;99947.03;;;21.90;55.42
8705;BME280;4389;41.932;25.904;2023-04-15T11:48:22;99943.16;;;22.04;52.52
8705;BME280;4389;41.932;25.904;2023-04-15T11:50:53;99941.38;;;22.16;50.03
8705;BME280;4389;41.932;25.904;2023-04-15T11:53:20;99932.25;;;22.17;50.83
8705;BME280;4389;41.932;25.904;2023-04-15T11:55:48;99936.25;;;22.33;50.61
8705;BME280;4389;41.932;25.904;2023-04-15T11:58:18;99938.13;;;22.50;49.78
8705;BME280;4389;41.932;25.904;2023-04-15T12:00:48;99935.16;;;22.88;47.94
8705;BME280;4389;41.932;25.904;2023-04-15T12:03:21;99927.19;;;22.93;47.52
8705;BME280;4389;41.932;25.904;2023-04-15T12:06:05;99927.66;;;22.90;46.66
8705;BME280;4389;41.932;25.904;2023-04-15T12:09:08;99917.06;;;22.59;55.78
8705;BME280;4389;41.932;25.904;2023-04-15T12:11:38;99923.88;;;22.61;54.67
8705;BME280;4389;41.932;25.904;2023-04-15T12:14:09;99917.25;;;22.75;57.71
8705;BME280;4389;41.932;25.904;2023-04-15T12:16:40;99903.50;;;22.65;57.22
8705;BME280;4389;41.932;25.904;2023-04-15T12:19:10;99918.78;;;22.71;55.70
8705;BME280;4389;41.932;25.904;2023-04-15T12:21:38;99914.84;;;22.85;57.98
8705;BME280;4389;41.932;25.904;2023-04-15T12:24:07;99910.53;;;22.66;56.89
8705;BME280;4389;41.932;25.904;2023-04-15T12:26:36;99910.25;;;22.56;56.44
8705;BME280;4389;41.932;25.904;2023-04-15T12:29:04;99913.75;;;22.57;44.21
8705;BME280;4389;41.932;25.904;2023-04-15T12:31:33;99910.44;;;22.73;48.92
8705;BME280;4389;41.932;25.904;2023-04-15T12:34:02;99917.50;;;22.74;56.59
8705;BME280;4389;41.932;25.904;2023-04-15T12:36:30;99918.41;;;22.68;59.88
8705;BME280;4389;41.932;25.904;2023-04-15T12:39:01;99887.75;;;22.26;63.47
8705;BME280;4389;41.932;25.904;2023-04-15T12:41:28;99887.00;;;22.19;63.82
8705;BME280;4389;41.932;25.904;2023-04-15T12:43:55;99905.72;;;22.68;43.67
8705;BME280;4389;41.932;25.904;2023-04-15T12:46:22;99903.97;;;23.21;34.47
8705;BME280;4389;41.932;25.904;2023-04-15T12:48:49;99911.56;;;23.65;32.15
8705;BME280;4389;41.932;25.904;2023-04-15T12:51:18;99910.13;;;23.74;30.55
8705;BME280;4389;41.932;25.904;2023-04-15T12:53:45;99907.78;;;23.66;32.06
8705;BME280;4389;41.932;25.904;2023-04-15T12:56:13;99910.84;;;23.58;31.56
8705;BME280;4389;41.932;25.904;2023-04-15T12:58:39;99909.78;;;23.71;31.38
8705;BME280;4389;41.932;25.904;2023-04-15T13:01:06;99907.78;;;23.78;29.74
8705;BME280;4389;41.932;25.904;2023-04-15T13:03:33;99907.81;;;24.01;30.40